createdAt,value
2023-03-04T00:01:26.881Z,2.80
2023-03-04T00:03:53.695Z,2.80
2023-03-04T00:06:20.779Z,2.80
2023-03-04T00:08:47.496Z,2.80
2023-03-04T00:11:14.316Z,2.80
2023-03-04T00:13:41.027Z,2.80
2023-03-04T00:16:07.837Z,2.80
2023-03-04T00:18:34.717Z,2.80
2023-03-04T00:21:01.481Z,2.80
2023-03-04T00:23:28.328Z,2.70
2023-03-04T00:25:55.480Z,2.70
2023-03-04T00:28:22.559Z,2.70
2023-03-04T00:30:49.378Z,2.70
2023-03-04T00:33:16.242Z,2.70
2023-03-04T00:35:43.063Z,2.70
2023-03-04T00:38:09.873Z,2.70
2023-03-04T00:40:36.693Z,2.70
2023-03-04T00:43:03.563Z,2.80
2023-03-04T00:45:30.294Z,2.80
2023-03-04T00:47:57.231Z,2.80
2023-03-04T00:50:23.939Z,2.70
2023-03-04T00:52:50.692Z,2.70
2023-03-04T00:55:17.545Z,2.60
2023-03-04T00:57:44.303Z,2.60
2023-03-04T01:00:11.771Z,2.60
2023-03-04T01:02:38.715Z,2.70
2023-03-04T01:05:07.249Z,2.70
2023-03-04T01:07:34.222Z,2.70
2023-03-04T01:10:00.970Z,2.70
2023-03-04T01:12:28.317Z,2.60
2023-03-04T01:14:55.125Z,2.60
2023-03-04T01:17:21.913Z,2.60
2023-03-04T01:19:48.685Z,2.60
2023-03-04T01:22:16.776Z,2.60
2023-03-04T01:24:43.929Z,2.60
2023-03-04T01:27:10.944Z,2.60
2023-03-04T01:29:37.742Z,2.60
2023-03-04T01:32:04.891Z,2.60
2023-03-04T01:34:31.687Z,2.60
2023-03-04T01:36:58.442Z,2.50
2023-03-04T01:39:25.208Z,2.50
2023-03-04T01:41:52.156Z,2.40
2023-03-04T01:44:18.988Z,2.30
2023-03-04T01:46:52.743Z,2.30
2023-03-04T01:49:19.738Z,2.30
2023-03-04T01:51:49.617Z,2.30
2023-03-04T01:54:19.301Z,2.20
2023-03-04T01:56:47.061Z,2.20
2023-03-04T01:59:13.875Z,2.20
2023-03-04T02:01:41.331Z,2.20
2023-03-04T02:04:08.562Z,2.20
2023-03-04T02:06:36.571Z,2.20
2023-03-04T02:09:04.061Z,2.10
2023-03-04T02:11:30.821Z,2.10
2023-03-04T02:13:57.798Z,2.10
2023-03-04T02:16:24.640Z,2.10
2023-03-04T02:18:51.729Z,2.00
2023-03-04T02:21:25.813Z,2.00
2023-03-04T02:24:10.287Z,2.10
2023-03-04T02:26:37.092Z,2.00
2023-03-04T02:29:03.907Z,2.00
2023-03-04T02:31:32.491Z,2.00
2023-03-04T02:34:04.603Z,2.00
2023-03-04T02:36:32.130Z,2.00
2023-03-04T02:39:15.688Z,2.00
2023-03-04T02:41:44.513Z,2.00
2023-03-04T02:44:17.240Z,2.10
2023-03-04T02:46:44.354Z,2.00
2023-03-04T02:49:11.530Z,2.10
2023-03-04T02:51:38.886Z,2.10
2023-03-04T02:54:05.684Z,2.10
2023-03-04T02:56:32.476Z,2.10
2023-03-04T02:58:59.245Z,2.00
2023-03-04T03:01:29.107Z,2.10
2023-03-04T03:03:56.185Z,2.20
2023-03-04T03:06:23.145Z,2.20
2023-03-04T03:08:50.304Z,2.20
2023-03-04T03:11:17.102Z,2.20
2023-03-04T03:13:43.885Z,2.30
2023-03-04T03:16:10.717Z,2.30
2023-03-04T03:18:37.457Z,2.30
2023-03-04T03:21:04.379Z,2.30
2023-03-04T03:23:31.157Z,2.30
2023-03-04T03:25:57.981Z,2.30
2023-03-04T03:28:24.842Z,2.30
2023-03-04T03:30:51.561Z,2.30
2023-03-04T03:33:18.689Z,2.40
2023-03-04T03:35:45.586Z,2.40
2023-03-04T03:38:12.488Z,2.40
2023-03-04T03:40:39.415Z,2.40
2023-03-04T03:43:06.257Z,2.40
2023-03-04T03:45:33.530Z,2.40
2023-03-04T03:48:00.606Z,2.40
2023-03-04T03:50:28.993Z,2.50
2023-03-04T03:52:55.729Z,2.50
2023-03-04T03:55:22.614Z,2.50
2023-03-04T03:57:49.378Z,2.50
2023-03-04T04:00:16.896Z,2.60
2023-03-04T04:02:43.763Z,2.60
2023-03-04T04:05:11.034Z,2.60
2023-03-04T04:07:37.857Z,2.60
2023-03-04T04:10:05.261Z,2.60
2023-03-04T04:12:32.068Z,2.70
2023-03-04T04:14:58.882Z,2.70
2023-03-04T04:17:25.610Z,2.70
2023-03-04T04:19:52.368Z,2.70
2023-03-04T04:22:20.610Z,2.70
2023-03-04T04:24:47.902Z,2.80
2023-03-04T04:27:14.734Z,2.80
2023-03-04T04:29:42.087Z,2.80
2023-03-04T04:32:09.151Z,2.80
2023-03-04T04:34:36.213Z,2.80
2023-03-04T04:37:02.997Z,2.80
2023-03-04T04:39:29.801Z,2.80
2023-03-04T04:41:56.606Z,2.90
2023-03-04T04:44:23.392Z,2.90
2023-03-04T04:46:50.153Z,2.90
2023-03-04T04:49:16.986Z,2.90
2023-03-04T04:51:43.773Z,2.90
2023-03-04T04:54:10.789Z,2.90
2023-03-04T04:56:37.592Z,2.90
2023-03-04T04:59:05.112Z,3.00
2023-03-04T05:01:31.966Z,3.00
2023-03-04T05:03:58.852Z,3.00
2023-03-04T05:06:25.649Z,3.00
2023-03-04T05:08:52.542Z,3.00
2023-03-04T05:11:20.127Z,3.00
2023-03-04T05:13:47.513Z,3.10
2023-03-04T05:16:15.219Z,3.00
2023-03-04T05:18:42.092Z,3.10
2023-03-04T05:21:08.885Z,3.10
2023-03-04T05:23:37.787Z,3.10
2023-03-04T05:26:05.425Z,3.10
2023-03-04T05:28:32.296Z,3.10
2023-03-04T05:31:00.125Z,3.10
2023-03-04T05:33:27.006Z,3.10
2023-03-04T05:35:55.121Z,3.10
2023-03-04T05:38:22.011Z,3.10
2023-03-04T05:40:49.152Z,3.10
2023-03-04T05:43:16.460Z,3.20
2023-03-04T05:45:43.618Z,3.30
2023-03-04T05:48:11.423Z,3.20
2023-03-04T05:50:38.181Z,3.20
2023-03-04T05:53:05.037Z,3.20
2023-03-04T05:55:31.865Z,3.20
2023-03-04T05:57:58.716Z,3.30
2023-03-04T06:00:25.644Z,3.20
2023-03-04T06:02:52.535Z,3.30
2023-03-04T06:05:19.478Z,3.30
2023-03-04T06:07:46.432Z,3.30
2023-03-04T06:10:15.045Z,3.30
2023-03-04T06:12:41.993Z,3.30
2023-03-04T06:15:10.401Z,3.30
2023-03-04T06:17:39.947Z,3.20
2023-03-04T06:20:09.043Z,3.30
2023-03-04T06:22:36.221Z,3.30
2023-03-04T06:25:03.147Z,3.30
2023-03-04T06:27:29.983Z,3.30
2023-03-04T06:29:56.892Z,3.40
2023-03-04T06:32:23.815Z,3.40
2023-03-04T06:34:50.792Z,3.40
2023-03-04T06:37:17.570Z,3.40
2023-03-04T06:39:45.212Z,3.40
2023-03-04T06:42:12.456Z,3.50
2023-03-04T06:44:39.434Z,3.50
2023-03-04T06:47:06.307Z,3.50
2023-03-04T06:49:33.126Z,3.50
2023-03-04T06:51:59.891Z,3.50
2023-03-04T06:54:26.666Z,3.60
2023-03-04T06:56:53.445Z,3.60
2023-03-04T06:59:20.216Z,3.60
2023-03-04T07:01:47.079Z,3.60
2023-03-04T07:04:14.124Z,3.60
2023-03-04T07:06:40.904Z,3.70
2023-03-04T07:09:07.696Z,3.70
2023-03-04T07:11:34.501Z,3.70
2023-03-04T07:14:01.396Z,3.70
2023-03-04T07:16:28.345Z,3.80
2023-03-04T07:18:55.227Z,3.80
2023-03-04T07:21:22.424Z,3.90
2023-03-04T07:23:49.480Z,3.90
2023-03-04T07:26:16.980Z,3.90
2023-03-04T07:28:43.889Z,4.00
2023-03-04T07:31:10.687Z,4.00
2023-03-04T07:33:37.488Z,4.10
2023-03-04T07:36:04.341Z,4.10
2023-03-04T07:38:31.087Z,4.20
2023-03-04T07:40:58.682Z,4.30
2023-03-04T07:43:25.653Z,4.40
2023-03-04T07:45:52.559Z,4.50
2023-03-04T07:48:19.661Z,4.60
2023-03-04T07:50:46.533Z,4.70
2023-03-04T07:53:13.693Z,4.80
2023-03-04T07:55:40.458Z,4.80
2023-03-04T07:58:07.238Z,5.00
2023-03-04T08:00:34.168Z,5.10
2023-03-04T08:03:00.949Z,5.20
2023-03-04T08:05:27.798Z,5.20
2023-03-04T08:07:58.153Z,5.20
2023-03-04T08:10:24.970Z,5.30
2023-03-04T08:12:51.754Z,5.40
2023-03-04T08:15:18.528Z,5.50
2023-03-04T08:17:45.599Z,5.60
2023-03-04T08:20:12.825Z,5.70
2023-03-04T08:22:39.638Z,5.70
2023-03-04T08:25:06.558Z,5.90
2023-03-04T08:27:33.310Z,6.00
2023-03-04T08:30:00.113Z,6.10
2023-03-04T08:32:26.921Z,6.10
2023-03-04T08:34:56.221Z,6.10
2023-03-04T08:37:23.600Z,6.20
2023-03-04T08:39:50.317Z,6.30
2023-03-04T08:42:17.063Z,6.40
2023-03-04T08:44:44.236Z,6.50
2023-03-04T08:47:11.783Z,6.60
2023-03-04T08:49:38.898Z,6.60
2023-03-04T08:52:06.076Z,6.70
2023-03-04T08:54:33.147Z,6.70
2023-03-04T08:57:00.605Z,6.70
2023-03-04T08:59:35.505Z,6.80
2023-03-04T09:02:03.952Z,6.90
2023-03-04T09:04:30.739Z,6.90
2023-03-04T09:06:57.528Z,7.00
2023-03-04T09:09:24.375Z,7.10
2023-03-04T09:11:51.172Z,7.20
2023-03-04T09:14:17.931Z,7.20
2023-03-04T09:16:45.088Z,7.30
2023-03-04T09:19:11.779Z,7.40
2023-03-04T09:21:38.893Z,7.30
2023-03-04T09:24:05.851Z,7.30
2023-03-04T09:26:32.946Z,7.30
2023-03-04T09:29:00.851Z,7.40
2023-03-04T09:31:27.919Z,7.40
2023-03-04T09:33:56.457Z,7.40
2023-03-04T09:36:23.256Z,7.60
2023-03-04T09:38:50.047Z,7.50
2023-03-04T09:41:26.225Z,7.60
2023-03-04T09:43:53.178Z,7.60
2023-03-04T09:46:33.748Z,7.70
2023-03-04T09:49:00.819Z,7.70
2023-03-04T09:51:51.375Z,7.90
2023-03-04T09:54:26.546Z,7.90
2023-03-04T09:56:57.317Z,8.00
2023-03-04T09:59:41.559Z,8.00
2023-03-04T10:02:22.766Z,8.20
2023-03-04T10:04:51.667Z,8.30
2023-03-04T10:07:24.292Z,8.40
2023-03-04T10:10:19.383Z,8.40
2023-03-04T10:12:46.932Z,8.50
2023-03-04T10:15:34.364Z,8.60
2023-03-04T10:18:22.025Z,8.70
2023-03-04T10:21:14.247Z,8.90
2023-03-04T10:23:41.873Z,9.00
2023-03-04T10:26:17.162Z,9.00
2023-03-04T10:28:44.180Z,9.10
2023-03-04T10:31:30.204Z,9.20
2023-03-04T10:33:57.012Z,9.30
2023-03-04T10:36:29.902Z,9.40
2023-03-04T10:39:02.383Z,9.50
2023-03-04T10:41:30.933Z,9.60
2023-03-04T10:44:02.073Z,9.60
2023-03-04T10:46:29.241Z,9.70
2023-03-04T10:48:56.289Z,9.70
2023-03-04T10:51:25.479Z,9.80
2023-03-04T10:54:00.075Z,9.90
2023-03-04T10:56:45.819Z,10.00
2023-03-04T10:59:42.875Z,10.00
2023-03-04T11:02:31.670Z,10.10
2023-03-04T11:05:21.561Z,10.20
2023-03-04T11:08:00.594Z,10.30
2023-03-04T11:10:31.087Z,10.30
2023-03-04T11:13:02.835Z,10.40
2023-03-04T11:15:31.347Z,10.40
2023-03-04T11:18:03.411Z,10.50
2023-03-04T11:20:38.500Z,10.50
2023-03-04T11:23:37.341Z,10.60
2023-03-04T11:26:31.347Z,10.70
2023-03-04T11:29:25.364Z,10.80
2023-03-04T11:32:01.332Z,10.80
2023-03-04T11:34:33.816Z,10.80
2023-03-04T11:37:19.476Z,10.90
2023-03-04T11:39:47.793Z,10.90
2023-03-04T11:42:43.076Z,11.00
2023-03-04T11:46:05.872Z,11.00
2023-03-04T11:49:02.208Z,11.00
2023-03-04T11:51:51.546Z,11.10
2023-03-04T11:54:30.370Z,11.10
2023-03-04T11:57:01.899Z,11.20
2023-03-04T11:59:31.965Z,11.20
2023-03-04T12:02:19.429Z,11.20
2023-03-04T12:05:01.197Z,11.30
2023-03-04T12:07:46.638Z,11.30
2023-03-04T12:10:50.233Z,11.30
2023-03-04T12:13:38.643Z,11.40
2023-03-04T12:16:30.676Z,11.40
2023-03-04T12:19:06.524Z,11.50
2023-03-04T12:21:51.569Z,11.50
2023-03-04T12:24:27.181Z,11.50
2023-03-04T12:26:53.988Z,11.60
2023-03-04T12:29:42.006Z,11.60
2023-03-04T12:32:26.972Z,11.60
2023-03-04T12:35:05.931Z,11.60
2023-03-04T12:37:58.878Z,11.60
2023-03-04T12:40:58.007Z,11.50
2023-03-04T12:43:58.393Z,11.60
2023-03-04T12:46:34.159Z,11.60
2023-03-04T12:49:17.093Z,11.70
2023-03-04T12:51:55.904Z,11.70
2023-03-04T12:54:32.828Z,11.70
2023-03-04T12:57:04.339Z,11.70
2023-03-04T12:59:38.814Z,11.80
2023-03-04T13:02:37.381Z,11.80
2023-03-04T13:05:25.599Z,11.90
2023-03-04T13:08:11.286Z,11.90
2023-03-04T13:10:38.540Z,11.90
2023-03-04T13:13:10.568Z,11.90
2023-03-04T13:15:37.931Z,11.90
2023-03-04T13:18:20.054Z,11.90
2023-03-04T13:20:47.229Z,11.90
2023-03-04T13:23:14.176Z,11.90
2023-03-04T13:25:45.336Z,12.00
2023-03-04T13:28:27.154Z,11.90
2023-03-04T13:30:57.178Z,11.90
2023-03-04T13:33:23.984Z,11.90
2023-03-04T13:36:02.230Z,12.00
2023-03-04T13:38:30.944Z,12.00
2023-03-04T13:41:00.639Z,12.00
2023-03-04T13:43:29.054Z,11.90
2023-03-04T13:45:56.995Z,12.00
2023-03-04T13:48:31.451Z,12.00
2023-03-04T13:50:58.908Z,12.00
2023-03-04T13:53:38.773Z,11.90
2023-03-04T13:56:37.157Z,11.90
2023-03-04T13:59:07.396Z,11.90
2023-03-04T14:02:01.050Z,11.90
2023-03-04T14:04:36.232Z,11.80
2023-03-04T14:07:25.949Z,11.80
2023-03-04T14:10:11.284Z,11.80
2023-03-04T14:12:46.538Z,11.60
2023-03-04T14:15:13.302Z,11.40
2023-03-04T14:17:40.516Z,11.40
2023-03-04T14:20:25.925Z,11.40
2023-03-04T14:22:52.986Z,11.50
2023-03-04T14:25:21.408Z,11.50
2023-03-04T14:27:48.595Z,11.60
2023-03-04T14:30:40.831Z,11.60
2023-03-04T14:33:14.255Z,11.70
2023-03-04T14:35:41.233Z,11.70
2023-03-04T14:38:16.718Z,11.70
2023-03-04T14:40:45.560Z,11.60
2023-03-04T14:43:17.920Z,11.60
2023-03-04T14:45:45.943Z,11.60
2023-03-04T14:48:24.954Z,11.60
2023-03-04T14:50:52.924Z,11.60
2023-03-04T14:53:21.411Z,11.70
2023-03-04T14:56:07.505Z,11.60
2023-03-04T14:58:38.795Z,11.60
2023-03-04T15:01:18.374Z,11.50
2023-03-04T15:04:04.121Z,11.40
2023-03-04T15:06:35.088Z,11.40
2023-03-04T15:09:22.873Z,11.40
2023-03-04T15:11:56.981Z,11.30
2023-03-04T15:14:46.564Z,11.40
2023-03-04T15:17:28.960Z,11.40
2023-03-04T15:20:26.603Z,11.40
2023-03-04T15:22:53.414Z,11.30
2023-03-04T15:25:20.619Z,11.30
2023-03-04T15:27:48.270Z,11.20
2023-03-04T15:30:19.029Z,11.30
2023-03-04T15:32:46.259Z,11.30
2023-03-04T15:35:13.497Z,11.40
2023-03-04T15:37:40.350Z,11.20
2023-03-04T15:40:15.256Z,11.10
2023-03-04T15:42:42.089Z,11.10
2023-03-04T15:45:18.846Z,11.00
2023-03-04T15:47:45.632Z,11.00
2023-03-04T15:50:12.354Z,11.10
2023-03-04T15:52:39.777Z,11.10
2023-03-04T15:55:07.583Z,11.20
2023-03-04T15:57:34.370Z,11.20
2023-03-04T16:00:01.290Z,11.20
2023-03-04T16:02:28.093Z,11.20
2023-03-04T16:04:54.865Z,11.20
2023-03-04T16:07:24.501Z,11.20
2023-03-04T16:09:57.151Z,11.20
2023-03-04T16:12:25.050Z,11.20
2023-03-04T16:14:52.879Z,11.20
2023-03-04T16:17:20.008Z,11.20
2023-03-04T16:19:47.880Z,11.10
2023-03-04T16:22:15.526Z,11.00
2023-03-04T16:24:42.375Z,11.00
2023-03-04T16:27:13.343Z,10.90
2023-03-04T16:29:40.234Z,10.90
2023-03-04T16:32:07.315Z,10.80
2023-03-04T16:34:34.068Z,10.70
2023-03-04T16:37:02.534Z,10.50
2023-03-04T16:39:29.730Z,10.30
2023-03-04T16:41:56.753Z,10.20
2023-03-04T16:44:23.588Z,10.20
2023-03-04T16:46:50.841Z,10.10
2023-03-04T16:49:17.992Z,10.00
2023-03-04T16:51:48.568Z,10.00
2023-03-04T16:54:18.259Z,9.90
2023-03-04T16:56:45.066Z,9.80
2023-03-04T16:59:16.181Z,9.80
2023-03-04T17:01:43.105Z,9.70
2023-03-04T17:04:09.947Z,9.50
2023-03-04T17:06:39.900Z,9.20
2023-03-04T17:09:08.059Z,9.00
2023-03-04T17:11:34.901Z,8.80
2023-03-04T17:14:02.118Z,8.60
2023-03-04T17:16:29.185Z,8.70
2023-03-04T17:18:56.230Z,8.70
2023-03-04T17:21:25.365Z,8.70
2023-03-04T17:23:52.948Z,8.60
2023-03-04T17:26:23.094Z,8.60
2023-03-04T17:28:50.617Z,8.50
2023-03-04T17:31:19.179Z,8.50
2023-03-04T17:33:46.253Z,8.40
2023-03-04T17:36:13.342Z,8.10
2023-03-04T17:38:40.280Z,7.90
2023-03-04T17:41:09.617Z,7.80
2023-03-04T17:43:36.461Z,7.70
2023-03-04T17:46:04.841Z,7.50
2023-03-04T17:48:31.645Z,7.50
2023-03-04T17:50:58.582Z,7.60
2023-03-04T17:53:25.439Z,7.60
2023-03-04T17:55:53.141Z,7.60
2023-03-04T17:58:19.963Z,7.60
2023-03-04T18:00:46.782Z,7.40
2023-03-04T18:03:13.820Z,7.40
2023-03-04T18:05:40.725Z,7.40
2023-03-04T18:08:07.567Z,7.30
2023-03-04T18:10:34.586Z,7.30
2023-03-04T18:13:01.380Z,7.10
2023-03-04T18:15:28.174Z,7.20
2023-03-04T18:17:55.012Z,7.10
2023-03-04T18:20:21.838Z,7.10
2023-03-04T18:22:48.597Z,7.10
2023-03-04T18:25:15.403Z,6.90
2023-03-04T18:27:42.277Z,6.90
2023-03-04T18:30:11.843Z,6.80
2023-03-04T18:32:51.298Z,6.80
2023-03-04T18:35:20.010Z,6.70
2023-03-04T18:37:48.016Z,6.70
2023-03-04T18:40:15.444Z,6.60
2023-03-04T18:42:44.364Z,6.60
2023-03-04T18:45:14.700Z,6.50
2023-03-04T18:47:41.997Z,6.50
2023-03-04T18:50:09.561Z,6.40
2023-03-04T18:52:36.450Z,6.40
2023-03-04T18:55:03.372Z,6.30
2023-03-04T18:57:30.192Z,6.30
2023-03-04T18:59:59.341Z,6.30
2023-03-04T19:02:42.625Z,6.30
2023-03-04T19:05:15.847Z,6.20
2023-03-04T19:07:42.724Z,6.20
2023-03-04T19:10:10.657Z,6.10
2023-03-04T19:12:37.520Z,6.10
2023-03-04T19:15:06.065Z,6.10
2023-03-04T19:17:33.114Z,6.00
2023-03-04T19:20:00.025Z,6.00
2023-03-04T19:22:26.861Z,6.00
2023-03-04T19:24:53.653Z,6.00
2023-03-04T19:27:20.500Z,5.90
2023-03-04T19:29:48.186Z,5.80
2023-03-04T19:32:17.369Z,5.80
2023-03-04T19:34:45.590Z,5.80
2023-03-04T19:37:13.232Z,5.80
2023-03-04T19:39:40.312Z,5.70
2023-03-04T19:42:07.401Z,5.70
2023-03-04T19:44:34.284Z,5.70
2023-03-04T19:47:01.169Z,5.70
2023-03-04T19:49:28.079Z,5.70
2023-03-04T19:51:54.889Z,5.70
2023-03-04T19:54:21.613Z,5.70
2023-03-04T19:56:48.441Z,5.60
2023-03-04T19:59:15.496Z,5.60
2023-03-04T20:01:42.761Z,5.50
2023-03-04T20:04:11.280Z,5.50
2023-03-04T20:06:39.319Z,5.50
2023-03-04T20:09:06.325Z,5.50
2023-03-04T20:11:33.223Z,5.40
2023-03-04T20:14:01.603Z,5.50
2023-03-04T20:16:28.638Z,5.50
2023-03-04T20:18:57.977Z,5.40
2023-03-04T20:21:25.993Z,5.50
2023-03-04T20:23:52.787Z,5.40
2023-03-04T20:26:19.625Z,5.30
2023-03-04T20:28:46.417Z,5.30
2023-03-04T20:31:26.396Z,5.30
2023-03-04T20:33:54.911Z,5.20
2023-03-04T20:36:22.803Z,5.10
2023-03-04T20:38:51.269Z,5.20
2023-03-04T20:41:23.646Z,5.20
2023-03-04T20:43:50.611Z,5.10
2023-03-04T20:46:39.852Z,5.00
2023-03-04T20:49:11.783Z,5.00
2023-03-04T20:51:38.599Z,5.00
2023-03-04T20:54:06.134Z,5.00
2023-03-04T20:56:33.232Z,4.90
2023-03-04T20:59:01.340Z,4.90
2023-03-04T21:01:28.454Z,4.90
2023-03-04T21:03:55.341Z,4.80
2023-03-04T21:06:24.949Z,4.80
2023-03-04T21:08:51.822Z,4.80
2023-03-04T21:11:18.597Z,4.90
2023-03-04T21:13:45.428Z,4.80
2023-03-04T21:16:13.689Z,4.80
2023-03-04T21:18:41.199Z,4.80
2023-03-04T21:21:14.356Z,4.80
2023-03-04T21:23:41.410Z,4.70
2023-03-04T21:26:08.340Z,4.60
2023-03-04T21:28:35.154Z,4.70
2023-03-04T21:31:02.017Z,4.70
2023-03-04T21:33:36.492Z,4.60
2023-03-04T21:36:03.555Z,4.60
2023-03-04T21:38:30.647Z,4.50
2023-03-04T21:40:57.577Z,4.60
2023-03-04T21:43:24.334Z,4.60
2023-03-04T21:45:55.828Z,4.60
2023-03-04T21:48:23.965Z,4.50
2023-03-04T21:50:51.126Z,4.50
2023-03-04T21:53:21.892Z,4.40
2023-03-04T21:55:49.771Z,4.50
2023-03-04T21:58:16.983Z,4.50
2023-03-04T22:00:43.974Z,4.50
2023-03-04T22:03:11.030Z,4.50
2023-03-04T22:05:44.768Z,4.40
2023-03-04T22:08:20.901Z,4.40
2023-03-04T22:10:47.753Z,4.40
2023-03-04T22:13:15.315Z,4.50
2023-03-04T22:15:43.407Z,4.40
2023-03-04T22:18:11.896Z,4.40
2023-03-04T22:20:40.220Z,4.40
2023-03-04T22:23:07.398Z,4.40
2023-03-04T22:25:38.225Z,4.30
2023-03-04T22:28:05.350Z,4.30
2023-03-04T22:30:33.067Z,4.30
2023-03-04T22:33:00.083Z,4.30
2023-03-04T22:35:27.017Z,4.30
2023-03-04T22:37:53.902Z,4.30
2023-03-04T22:40:21.042Z,4.30
2023-03-04T22:42:47.913Z,4.30
2023-03-04T22:45:15.843Z,4.30
2023-03-04T22:47:49.809Z,4.20
2023-03-04T22:50:17.216Z,4.20
2023-03-04T22:52:44.159Z,4.10
2023-03-04T22:55:12.619Z,4.00
2023-03-04T22:57:39.900Z,3.90
2023-03-04T23:00:15.883Z,3.70
2023-03-04T23:02:42.729Z,3.70
2023-03-04T23:05:11.173Z,3.60
2023-03-04T23:07:38.457Z,3.70
2023-03-04T23:10:06.133Z,3.70
2023-03-04T23:12:33.811Z,3.70
2023-03-04T23:15:00.682Z,3.70
2023-03-04T23:17:27.605Z,3.60
2023-03-04T23:19:54.448Z,3.50
2023-03-04T23:22:22.009Z,3.40
2023-03-04T23:24:48.844Z,3.40
2023-03-04T23:27:15.600Z,3.40
2023-03-04T23:29:42.479Z,3.50
2023-03-04T23:32:09.428Z,3.50
2023-03-04T23:34:36.681Z,3.50
2023-03-04T23:37:03.874Z,3.40
2023-03-04T23:39:30.629Z,3.40
2023-03-04T23:41:57.392Z,3.40
2023-03-04T23:44:24.895Z,3.40
2023-03-04T23:46:51.714Z,3.40
2023-03-04T23:49:18.783Z,3.30
2023-03-04T23:51:45.782Z,3.20
2023-03-04T23:54:13.208Z,3.10
2023-03-04T23:56:40.036Z,3.20
2023-03-04T23:59:07.869Z,3.20
